createdAt,value
2022-12-03T00:02:57.440Z,16.39
2022-12-03T00:08:12.262Z,16.41
2022-12-03T00:13:27.469Z,16.43
2022-12-03T00:18:43.245Z,16.43
2022-12-03T00:23:58.238Z,16.42
2022-12-03T00:29:13.699Z,16.36
2022-12-03T00:34:28.970Z,16.32
2022-12-03T00:39:44.269Z,16.35
2022-12-03T00:44:59.207Z,16.35
2022-12-03T00:50:14.547Z,16.32
2022-12-03T00:55:30.207Z,16.29
2022-12-03T01:00:45.211Z,16.32
2022-12-03T01:06:01.271Z,16.34
2022-12-03T01:11:16.204Z,16.32
2022-12-03T01:16:31.659Z,16.34
2022-12-03T01:21:47.056Z,16.33
2022-12-03T01:27:02.011Z,16.33
2022-12-03T01:32:17.261Z,16.35
2022-12-03T01:37:32.246Z,16.35
2022-12-03T01:42:47.200Z,16.36
2022-12-03T01:48:02.556Z,16.36
2022-12-03T01:53:18.225Z,16.36
2022-12-03T01:58:33.295Z,16.35
2022-12-03T02:03:48.051Z,16.36
2022-12-03T02:09:03.565Z,16.34
2022-12-03T02:14:19.212Z,16.34
2022-12-03T02:19:34.254Z,16.35
2022-12-03T02:24:49.364Z,16.34
2022-12-03T02:30:04.253Z,16.34
2022-12-03T02:35:19.268Z,16.34
2022-12-03T02:40:34.580Z,16.34
2022-12-03T02:45:50.215Z,16.31
2022-12-03T02:51:05.284Z,16.33
2022-12-03T02:56:20.307Z,16.32
2022-12-03T03:01:35.366Z,16.33
2022-12-03T03:06:50.535Z,16.34
2022-12-03T03:12:06.539Z,16.34
2022-12-03T03:17:22.331Z,16.33
2022-12-03T03:22:37.260Z,16.34
2022-12-03T03:27:52.257Z,16.32
2022-12-03T03:33:07.222Z,16.32
2022-12-03T03:38:22.343Z,16.32
2022-12-03T03:43:37.232Z,16.31
2022-12-03T03:48:52.266Z,16.31
2022-12-03T03:54:07.578Z,16.30
2022-12-03T03:59:23.267Z,16.31
2022-12-03T04:04:38.286Z,16.31
2022-12-03T04:09:53.339Z,16.29
2022-12-03T04:15:08.593Z,16.29
2022-12-03T04:20:24.279Z,16.30
2022-12-03T04:25:39.258Z,16.29
2022-12-03T04:30:54.277Z,16.32
2022-12-03T04:36:09.586Z,16.33
2022-12-03T04:41:25.280Z,16.34
2022-12-03T04:46:40.569Z,16.34
2022-12-03T04:51:56.308Z,16.36
2022-12-03T04:57:11.241Z,16.35
2022-12-03T05:02:26.333Z,16.35
2022-12-03T05:07:41.325Z,16.35
2022-12-03T05:12:56.355Z,16.36
2022-12-03T05:18:11.080Z,16.36
2022-12-03T05:23:26.323Z,16.37
2022-12-03T05:28:41.295Z,16.38
2022-12-03T05:33:56.346Z,16.37
2022-12-03T05:39:11.497Z,16.38
2022-12-03T05:44:27.342Z,16.40
2022-12-03T05:49:42.308Z,16.42
2022-12-03T05:54:57.220Z,16.43
2022-12-03T06:00:12.597Z,16.46
2022-12-03T06:05:28.353Z,16.50
2022-12-03T06:10:43.336Z,16.52
2022-12-03T06:15:58.572Z,16.53
2022-12-03T06:21:14.276Z,16.54
2022-12-03T06:26:29.576Z,16.61
2022-12-03T06:31:46.490Z,16.61
2022-12-03T06:37:02.234Z,16.62
2022-12-03T06:42:17.240Z,16.58
2022-12-03T06:47:32.271Z,16.55
2022-12-03T06:52:47.277Z,16.50
2022-12-03T06:58:02.328Z,16.46
2022-12-03T07:03:17.340Z,16.43
2022-12-03T07:08:32.603Z,16.40
2022-12-03T07:13:48.337Z,16.39
2022-12-03T07:19:03.424Z,16.37
2022-12-03T07:24:18.315Z,16.36
2022-12-03T07:29:33.666Z,16.35
2022-12-03T07:34:49.309Z,16.34
2022-12-03T07:40:05.303Z,16.29
2022-12-03T07:45:20.267Z,16.27
2022-12-03T07:50:35.559Z,16.28
2022-12-03T07:55:51.622Z,16.26
2022-12-03T08:01:07.449Z,16.24
2022-12-03T08:06:22.291Z,16.24
2022-12-03T08:11:37.082Z,16.23
2022-12-03T08:16:53.302Z,16.29
2022-12-03T08:22:08.317Z,16.34
2022-12-03T08:27:23.624Z,16.37
2022-12-03T08:32:39.334Z,16.40
2022-12-03T08:37:55.564Z,16.40
2022-12-03T08:43:11.243Z,16.46
2022-12-03T08:48:26.250Z,16.47
2022-12-03T08:53:41.251Z,16.47
2022-12-03T08:58:56.298Z,16.51
2022-12-03T09:04:11.706Z,16.55
2022-12-03T09:09:27.249Z,16.56
2022-12-03T09:14:42.298Z,16.56
2022-12-03T09:19:58.280Z,16.58
2022-12-03T09:25:13.024Z,16.57
2022-12-03T09:30:28.279Z,16.59
2022-12-03T09:35:43.240Z,16.60
2022-12-03T09:40:58.253Z,16.61
2022-12-03T09:46:13.644Z,16.63
2022-12-03T09:51:29.579Z,16.65
2022-12-03T09:56:45.252Z,16.68
2022-12-03T10:02:00.729Z,16.71
2022-12-03T10:07:16.269Z,16.71
2022-12-03T10:12:31.289Z,16.70
2022-12-03T10:17:46.066Z,16.72
2022-12-03T10:23:01.621Z,16.71
2022-12-03T10:28:17.299Z,16.72
2022-12-03T10:33:32.263Z,16.74
2022-12-03T10:38:47.298Z,16.73
2022-12-03T10:44:02.226Z,16.73
2022-12-03T10:49:17.054Z,16.78
2022-12-03T10:54:32.346Z,16.85
2022-12-03T10:59:47.599Z,16.85
2022-12-03T11:05:04.255Z,16.85
2022-12-03T11:10:19.266Z,16.88
2022-12-03T11:15:34.360Z,16.87
2022-12-03T11:20:49.073Z,16.81
2022-12-03T11:26:04.268Z,16.75
2022-12-03T11:31:19.587Z,16.73
2022-12-03T11:37:00.441Z,16.71
2022-12-03T11:42:10.252Z,16.68
2022-12-03T11:47:25.331Z,16.64
2022-12-03T11:52:40.312Z,16.62
2022-12-03T11:57:55.261Z,16.58
2022-12-03T12:03:11.644Z,16.55
2022-12-03T12:08:27.404Z,16.55
2022-12-03T12:13:42.318Z,16.52
2022-12-03T12:18:57.580Z,16.51
2022-12-03T12:24:13.269Z,16.44
2022-12-03T12:29:28.318Z,16.47
2022-12-03T12:34:43.304Z,16.46
2022-12-03T12:39:58.735Z,16.46
2022-12-03T12:45:14.601Z,16.45
2022-12-03T12:50:30.404Z,16.43
2022-12-03T12:55:45.272Z,16.40
2022-12-03T13:01:00.728Z,16.36
2022-12-03T13:06:18.253Z,16.33
2022-12-03T13:11:33.260Z,16.28
2022-12-03T13:16:48.674Z,16.33
2022-12-03T13:22:04.367Z,16.33
2022-12-03T13:27:19.571Z,16.31
2022-12-03T13:32:35.288Z,16.31
2022-12-03T13:38:27.363Z,16.29
2022-12-03T13:43:44.502Z,16.29
2022-12-03T13:49:02.098Z,16.28
2022-12-03T13:54:18.379Z,16.29
2022-12-03T13:59:33.253Z,16.29
2022-12-03T14:04:48.512Z,16.27
2022-12-03T14:10:04.270Z,16.24
2022-12-03T14:15:20.618Z,16.23
2022-12-03T14:20:36.352Z,16.21
2022-12-03T14:25:51.281Z,16.18
2022-12-03T14:31:06.247Z,16.15
2022-12-03T14:36:21.252Z,16.13
2022-12-03T14:41:36.281Z,16.11
2022-12-03T14:46:56.609Z,16.10
2022-12-03T14:52:13.011Z,16.09
2022-12-03T14:57:28.290Z,16.10
2022-12-03T15:02:43.711Z,16.08
2022-12-03T15:07:59.404Z,16.06
2022-12-03T15:13:14.283Z,16.08
2022-12-03T15:18:29.284Z,16.07
2022-12-03T15:23:44.297Z,16.06
2022-12-03T15:28:59.280Z,16.06
2022-12-03T15:34:20.443Z,16.04
2022-12-03T15:39:37.275Z,16.06
2022-12-03T15:44:52.344Z,16.06
2022-12-03T15:50:07.253Z,16.06
2022-12-03T15:55:22.555Z,16.05
2022-12-03T16:00:38.309Z,16.06
2022-12-03T16:05:53.073Z,16.06
2022-12-03T16:11:08.649Z,16.06
2022-12-03T16:16:24.691Z,16.07
2022-12-03T16:21:41.299Z,16.06
2022-12-03T16:26:56.584Z,16.05
2022-12-03T16:32:12.281Z,16.01
2022-12-03T16:37:27.403Z,15.97
2022-12-03T16:42:42.330Z,15.94
2022-12-03T16:47:57.276Z,15.94
2022-12-03T16:53:12.371Z,15.91
2022-12-03T16:58:27.326Z,15.89
2022-12-03T17:03:42.318Z,15.90
2022-12-03T17:08:57.097Z,15.83
2022-12-03T17:14:12.312Z,15.89
2022-12-03T17:19:28.602Z,15.87
2022-12-03T17:24:44.323Z,15.87
2022-12-03T17:29:59.676Z,15.85
2022-12-03T17:35:15.296Z,15.85
2022-12-03T17:40:30.576Z,15.84
2022-12-03T17:45:46.353Z,15.83
2022-12-03T17:51:01.311Z,15.79
2022-12-03T17:56:16.317Z,15.75
2022-12-03T18:01:31.646Z,15.71
2022-12-03T18:06:47.300Z,15.68
2022-12-03T18:12:02.568Z,15.66
2022-12-03T18:17:18.681Z,15.66
2022-12-03T18:22:34.334Z,15.65
2022-12-03T18:27:49.353Z,15.64
2022-12-03T18:33:05.626Z,15.63
2022-12-03T18:38:21.286Z,15.64
2022-12-03T18:43:36.409Z,15.62
2022-12-03T18:48:51.334Z,15.61
2022-12-03T18:54:08.438Z,15.62
2022-12-03T18:59:23.301Z,15.61
2022-12-03T19:04:38.582Z,15.62
2022-12-03T19:09:54.976Z,15.61
2022-12-03T19:15:10.358Z,15.60
2022-12-03T19:20:25.059Z,15.59
2022-12-03T19:25:40.297Z,15.58
2022-12-03T19:30:55.302Z,15.59
2022-12-03T19:36:10.094Z,15.59
2022-12-03T19:41:25.390Z,15.60
2022-12-03T19:46:40.382Z,15.59
2022-12-03T19:51:55.334Z,15.59
2022-12-03T19:57:10.316Z,15.60
2022-12-03T20:02:25.374Z,15.59
2022-12-03T20:07:40.587Z,15.58
2022-12-03T20:12:56.347Z,15.57
2022-12-03T20:18:11.343Z,15.57
2022-12-03T20:23:26.303Z,15.57
2022-12-03T20:28:41.116Z,15.57
2022-12-03T20:33:56.049Z,15.55
2022-12-03T20:39:11.117Z,15.54
2022-12-03T20:44:26.351Z,15.52
2022-12-03T20:49:41.652Z,15.51
2022-12-03T20:54:57.284Z,15.50
2022-12-03T21:00:12.287Z,15.48
2022-12-03T21:05:27.332Z,15.47
2022-12-03T21:10:42.347Z,15.46
2022-12-03T21:15:57.074Z,15.45
2022-12-03T21:21:12.786Z,15.44
2022-12-03T21:26:28.330Z,15.44
2022-12-03T21:31:43.302Z,15.43
2022-12-03T21:36:58.444Z,15.57
2022-12-03T21:42:18.764Z,15.65
2022-12-03T21:47:49.439Z,15.74
2022-12-03T21:53:04.433Z,15.77
2022-12-03T21:58:19.207Z,15.80
2022-12-03T22:03:34.434Z,15.83
2022-12-03T22:08:49.388Z,15.88
2022-12-03T22:14:04.337Z,15.91
2022-12-03T22:19:19.323Z,15.96
2022-12-03T22:24:34.345Z,15.99
2022-12-03T22:29:49.091Z,16.02
2022-12-03T22:35:04.698Z,16.04
2022-12-03T22:40:20.363Z,16.06
2022-12-03T22:45:35.660Z,16.08
2022-12-03T22:50:51.394Z,16.09
2022-12-03T22:56:07.358Z,16.14
2022-12-03T23:01:22.297Z,16.14
2022-12-03T23:06:37.408Z,16.15
2022-12-03T23:11:52.370Z,16.16
2022-12-03T23:17:07.332Z,16.16
2022-12-03T23:22:22.308Z,16.18
2022-12-03T23:27:37.300Z,16.20
2022-12-03T23:32:52.317Z,16.20
2022-12-03T23:38:07.701Z,16.22
2022-12-03T23:43:23.281Z,16.22
2022-12-03T23:48:38.645Z,16.24
2022-12-03T23:53:54.368Z,16.23
2022-12-03T23:59:09.724Z,16.24
